createdAt,value
2018-06-11T00:00:08.153Z,16.16
2018-06-11T00:02:36.149Z,16.06
2018-06-11T00:05:04.185Z,16.05
2018-06-11T00:07:32.265Z,16.23
2018-06-11T00:10:00.274Z,16.24
2018-06-11T00:12:28.326Z,16.27
2018-06-11T00:14:56.353Z,16.18
2018-06-11T00:17:24.357Z,16.19
2018-06-11T00:19:52.376Z,16.18
2018-06-11T00:22:20.367Z,16.04
2018-06-11T00:24:48.394Z,16.13
2018-06-11T00:27:16.409Z,16.19
2018-06-11T00:29:45.064Z,16.20
2018-06-11T00:32:13.064Z,16.24
2018-06-11T00:34:41.056Z,16.21
2018-06-11T00:37:09.068Z,16.24
2018-06-11T00:39:37.465Z,16.18
2018-06-11T00:42:05.493Z,16.27
2018-06-11T00:44:33.529Z,16.26
2018-06-11T00:47:01.585Z,16.19
2018-06-11T00:49:29.641Z,16.23
2018-06-11T00:51:57.679Z,16.20
2018-06-11T00:54:25.666Z,16.26
2018-06-11T00:56:53.661Z,16.22
2018-06-11T00:59:21.728Z,16.20
2018-06-11T01:01:49.735Z,16.09
2018-06-11T01:04:17.737Z,15.94
2018-06-11T01:06:45.735Z,15.69
2018-06-11T01:09:13.715Z,15.67
2018-06-11T01:11:41.708Z,15.65
2018-06-11T01:14:09.839Z,15.68
2018-06-11T01:16:37.872Z,15.71
2018-06-11T01:19:05.981Z,15.82
2018-06-11T01:21:33.996Z,15.89
2018-06-11T01:24:02.053Z,15.82
2018-06-11T01:26:30.046Z,15.71
2018-06-11T01:28:58.258Z,15.69
2018-06-11T01:31:26.283Z,15.71
2018-06-11T01:33:54.281Z,15.58
2018-06-11T01:36:22.293Z,15.70
2018-06-11T01:38:50.295Z,15.51
2018-06-11T01:41:18.332Z,15.43
2018-06-11T01:43:46.368Z,15.40
2018-06-11T01:46:14.424Z,15.41
2018-06-11T01:48:42.424Z,15.30
2018-06-11T01:51:10.438Z,15.36
2018-06-11T01:53:38.436Z,15.35
2018-06-11T01:56:06.892Z,15.40
2018-06-11T01:58:34.955Z,15.46
2018-06-11T02:01:02.964Z,15.49
2018-06-11T02:03:30.945Z,15.54
2018-06-11T02:05:58.942Z,15.48
2018-06-11T02:08:26.948Z,15.57
2018-06-11T02:10:54.980Z,15.71
2018-06-11T02:13:22.983Z,15.68
2018-06-11T02:15:50.989Z,15.66
2018-06-11T02:18:19.096Z,15.67
2018-06-11T02:20:47.101Z,15.63
2018-06-11T02:23:15.120Z,15.62
2018-06-11T02:25:43.177Z,15.57
2018-06-11T02:28:11.206Z,15.42
2018-06-11T02:30:39.193Z,15.42
2018-06-11T02:33:07.321Z,15.42
2018-06-11T02:35:35.413Z,15.41
2018-06-11T02:38:03.433Z,15.19
2018-06-11T02:40:31.426Z,15.30
2018-06-11T02:42:59.440Z,15.11
2018-06-11T02:45:27.482Z,15.13
2018-06-11T02:47:55.537Z,15.00
2018-06-11T02:50:23.541Z,15.11
2018-06-11T02:52:51.569Z,15.15
2018-06-11T02:55:19.653Z,15.13
2018-06-11T02:57:47.689Z,15.05
2018-06-11T03:00:15.706Z,15.09
2018-06-11T03:02:43.701Z,15.08
2018-06-11T03:05:11.714Z,15.09
2018-06-11T03:07:39.809Z,15.14
2018-06-11T03:10:07.816Z,15.11
2018-06-11T03:12:35.947Z,15.08
2018-06-11T03:15:03.996Z,15.10
2018-06-11T03:17:32.137Z,15.10
2018-06-11T03:20:00.174Z,15.05
2018-06-11T03:22:28.269Z,15.18
2018-06-11T03:24:56.292Z,15.18
2018-06-11T03:27:24.317Z,15.20
2018-06-11T03:29:52.328Z,15.22
2018-06-11T03:32:20.341Z,15.29
2018-06-11T03:34:48.357Z,15.40
2018-06-11T03:37:16.496Z,15.54
2018-06-11T03:39:44.504Z,15.50
2018-06-11T03:42:12.653Z,15.53
2018-06-11T03:44:40.668Z,15.59
2018-06-11T03:47:08.684Z,15.73
2018-06-11T03:49:36.696Z,15.69
2018-06-11T03:52:04.724Z,15.82
2018-06-11T03:54:32.788Z,15.81
2018-06-11T03:57:00.887Z,15.84
2018-06-11T03:59:28.899Z,15.78
2018-06-11T04:01:56.888Z,15.78
2018-06-11T04:04:24.949Z,15.75
2018-06-11T04:06:52.967Z,15.84
2018-06-11T04:09:21.128Z,15.75
2018-06-11T04:11:49.145Z,15.85
2018-06-11T04:14:17.193Z,15.96
2018-06-11T04:16:45.181Z,16.02
2018-06-11T04:19:13.180Z,16.10
2018-06-11T04:21:41.217Z,16.22
2018-06-11T04:24:09.244Z,16.36
2018-06-11T04:26:37.265Z,16.54
2018-06-11T04:29:05.369Z,16.65
2018-06-11T04:31:33.409Z,16.81
2018-06-11T04:34:01.442Z,16.94
2018-06-11T04:36:29.512Z,17.09
2018-06-11T04:38:57.543Z,17.14
2018-06-11T04:41:25.559Z,17.26
2018-06-11T04:43:53.647Z,17.22
2018-06-11T04:46:21.638Z,17.23
2018-06-11T04:48:49.669Z,17.27
2018-06-11T04:51:17.664Z,17.34
2018-06-11T04:53:45.673Z,17.40
2018-06-11T04:56:13.680Z,17.41
2018-06-11T04:58:41.704Z,17.56
2018-06-11T05:01:09.708Z,17.67
2018-06-11T05:03:37.717Z,17.71
2018-06-11T05:06:06.000Z,17.86
2018-06-11T05:08:34.020Z,17.86
2018-06-11T05:11:02.075Z,17.90
2018-06-11T05:13:30.109Z,18.00
2018-06-11T05:15:58.116Z,18.10
2018-06-11T05:18:26.136Z,18.07
2018-06-11T05:20:54.145Z,18.12
2018-06-11T05:23:22.220Z,17.96
2018-06-11T05:25:50.259Z,17.96
2018-06-11T05:28:18.257Z,18.07
2018-06-11T05:30:46.346Z,18.22
2018-06-11T05:33:14.329Z,18.17
2018-06-11T05:35:42.363Z,18.29
2018-06-11T05:38:10.353Z,18.36
2018-06-11T05:40:38.395Z,18.49
2018-06-11T05:43:06.382Z,18.56
2018-06-11T05:45:34.392Z,18.68
2018-06-11T05:48:02.456Z,18.58
2018-06-11T05:50:30.456Z,18.71
2018-06-11T05:52:58.457Z,18.90
2018-06-11T05:55:26.498Z,19.06
2018-06-11T05:57:55.106Z,19.14
2018-06-11T06:00:23.120Z,19.25
2018-06-11T06:02:51.185Z,19.41
2018-06-11T06:05:19.208Z,19.46
2018-06-11T06:07:47.204Z,19.48
2018-06-11T06:10:15.217Z,19.28
2018-06-11T06:12:43.229Z,19.43
2018-06-11T06:15:11.261Z,19.44
2018-06-11T06:17:39.264Z,19.26
2018-06-11T06:20:07.276Z,19.40
2018-06-11T06:22:35.273Z,19.34
2018-06-11T06:25:03.325Z,19.17
2018-06-11T06:27:31.334Z,19.13
2018-06-11T06:30:01.056Z,19.29
2018-06-11T06:32:29.067Z,19.31
2018-06-11T06:34:57.085Z,19.11
2018-06-11T06:37:25.199Z,18.74
2018-06-11T06:39:53.213Z,18.92
2018-06-11T06:42:21.220Z,18.93
2018-06-11T06:44:49.221Z,18.80
2018-06-11T06:47:17.249Z,18.98
2018-06-11T06:49:45.309Z,19.18
2018-06-11T06:52:13.321Z,19.33
2018-06-11T06:54:41.377Z,19.79
2018-06-11T06:57:09.424Z,20.41
2018-06-11T06:59:37.427Z,21.22
2018-06-11T07:02:05.632Z,21.74
2018-06-11T07:04:33.744Z,22.04
2018-06-11T07:07:01.733Z,22.35
2018-06-11T07:09:29.770Z,22.07
2018-06-11T07:11:57.941Z,22.17
2018-06-11T07:14:25.976Z,22.56
2018-06-11T07:16:54.013Z,22.79
2018-06-11T07:19:22.017Z,23.02
2018-06-11T07:21:50.056Z,23.20
2018-06-11T07:24:18.093Z,23.39
2018-06-11T07:26:46.166Z,23.29
2018-06-11T07:29:14.153Z,23.30
2018-06-11T07:31:42.233Z,23.05
2018-06-11T07:34:10.240Z,22.59
2018-06-11T07:36:38.293Z,22.24
2018-06-11T07:39:07.712Z,21.97
2018-06-11T07:41:36.151Z,21.65
2018-06-11T07:44:04.360Z,21.79
2018-06-11T07:46:32.357Z,21.88
2018-06-11T07:49:00.399Z,22.00
2018-06-11T07:51:28.416Z,22.08
2018-06-11T07:53:56.463Z,22.19
2018-06-11T07:56:24.508Z,22.32
2018-06-11T07:58:52.574Z,22.46
2018-06-11T08:01:20.645Z,22.90
2018-06-11T08:03:49.544Z,23.53
2018-06-11T08:06:18.489Z,23.74
2018-06-11T08:08:46.492Z,24.21
2018-06-11T08:11:14.521Z,23.96
2018-06-11T08:13:42.593Z,24.45
2018-06-11T08:16:10.669Z,24.06
2018-06-11T08:18:38.691Z,24.71
2018-06-11T08:21:06.716Z,25.49
2018-06-11T08:23:34.789Z,25.67
2018-06-11T08:26:02.806Z,26.03
2018-06-11T08:28:31.281Z,26.51
2018-06-11T08:30:59.301Z,26.48
2018-06-11T08:33:27.321Z,26.30
2018-06-11T08:35:55.348Z,26.19
2018-06-11T08:38:23.373Z,26.27
2018-06-11T08:40:51.398Z,26.51
2018-06-11T08:43:19.494Z,26.38
2018-06-11T08:45:47.505Z,26.16
2018-06-11T08:48:15.577Z,26.35
2018-06-11T08:50:43.652Z,27.06
2018-06-11T08:53:11.714Z,27.71
2018-06-11T08:55:39.742Z,27.97
2018-06-11T08:58:07.793Z,28.17
2018-06-11T09:00:35.847Z,28.23
2018-06-11T09:03:03.891Z,26.61
2018-06-11T09:05:31.881Z,27.13
2018-06-11T09:08:00.165Z,26.67
2018-06-11T09:10:28.193Z,27.23
2018-06-11T09:12:56.224Z,26.97
2018-06-11T09:15:24.232Z,26.61
2018-06-11T09:17:52.313Z,26.82
2018-06-11T09:20:20.314Z,25.87
2018-06-11T09:22:48.356Z,26.70
2018-06-11T09:25:16.360Z,26.93
2018-06-11T09:27:44.353Z,26.44
2018-06-11T09:30:12.398Z,26.47
2018-06-11T09:32:40.598Z,26.40
2018-06-11T09:35:08.628Z,26.43
2018-06-11T09:37:36.670Z,26.05
2018-06-11T09:40:05.067Z,25.73
2018-06-11T09:42:33.072Z,25.41
2018-06-11T09:45:01.073Z,25.50
2018-06-11T09:47:29.069Z,26.03
2018-06-11T09:49:57.073Z,26.16
2018-06-11T09:52:25.093Z,26.51
2018-06-11T09:54:53.125Z,26.38
2018-06-11T09:57:21.145Z,26.45
2018-06-11T09:59:49.150Z,26.45
2018-06-11T10:02:17.161Z,26.55
2018-06-11T10:04:45.185Z,25.79
2018-06-11T10:07:13.225Z,26.57
2018-06-11T10:09:41.305Z,26.83
2018-06-11T10:12:09.399Z,27.24
2018-06-11T10:14:37.401Z,27.63
2018-06-11T10:17:05.442Z,27.93
2018-06-11T10:19:33.450Z,28.11
2018-06-11T10:22:01.463Z,28.14
2018-06-11T10:24:29.496Z,28.28
2018-06-11T10:26:57.572Z,28.74
2018-06-11T10:29:25.622Z,28.80
2018-06-11T10:31:53.608Z,28.58
2018-06-11T10:34:21.646Z,28.59
2018-06-11T10:36:49.664Z,28.62
2018-06-11T10:39:17.696Z,28.84
2018-06-11T10:41:45.708Z,28.70
2018-06-11T10:44:13.744Z,27.56
2018-06-11T10:46:41.753Z,27.04
2018-06-11T10:49:09.813Z,26.57
2018-06-11T10:51:37.791Z,27.05
2018-06-11T10:54:06.069Z,27.40
2018-06-11T10:56:34.209Z,27.19
2018-06-11T10:59:02.234Z,27.41
2018-06-11T11:01:30.260Z,27.69
2018-06-11T11:03:58.277Z,27.97
2018-06-11T11:06:26.287Z,27.35
2018-06-11T11:08:54.340Z,27.06
2018-06-11T11:11:22.344Z,26.97
2018-06-11T11:13:50.369Z,26.78
2018-06-11T11:16:18.420Z,26.70
2018-06-11T11:18:46.445Z,26.87
2018-06-11T11:21:14.604Z,26.29
2018-06-11T11:23:42.641Z,25.56
2018-06-11T11:26:10.637Z,25.21
2018-06-11T11:28:38.666Z,25.59
2018-06-11T11:31:06.678Z,25.99
2018-06-11T11:33:34.758Z,26.40
2018-06-11T11:36:02.765Z,26.82
2018-06-11T11:38:30.832Z,26.70
2018-06-11T11:40:58.848Z,26.94
2018-06-11T11:43:26.846Z,27.28
2018-06-11T11:45:54.870Z,26.90
2018-06-11T11:48:22.883Z,26.92
2018-06-11T11:50:50.928Z,27.35
2018-06-11T11:53:19.078Z,27.68
2018-06-11T11:55:47.098Z,28.16
2018-06-11T11:58:15.083Z,28.43
2018-06-11T12:00:43.077Z,27.56
2018-06-11T12:03:11.112Z,27.25
2018-06-11T12:05:39.079Z,27.80
2018-06-11T12:08:07.084Z,27.05
2018-06-11T12:10:35.118Z,26.93
2018-06-11T12:13:03.176Z,27.24
2018-06-11T12:15:31.226Z,27.69
2018-06-11T12:17:59.245Z,27.74
2018-06-11T12:20:27.243Z,27.96
2018-06-11T12:22:55.304Z,28.07
2018-06-11T12:25:23.441Z,28.30
2018-06-11T12:27:51.448Z,28.68
2018-06-11T12:30:19.473Z,28.57
2018-06-11T12:32:47.495Z,28.62
2018-06-11T12:35:15.497Z,28.11
2018-06-11T12:37:43.582Z,27.81
2018-06-11T12:40:11.607Z,27.88
2018-06-11T12:42:39.579Z,27.62
2018-06-11T12:45:07.581Z,27.79
2018-06-11T12:47:35.842Z,28.04
2018-06-11T12:50:03.825Z,28.33
2018-06-11T12:52:31.796Z,28.16
2018-06-11T12:54:59.814Z,28.32
2018-06-11T12:57:29.610Z,28.40
2018-06-11T12:59:57.652Z,28.48
2018-06-11T13:02:25.724Z,28.50
2018-06-11T13:04:53.756Z,28.22
2018-06-11T13:07:21.800Z,27.85
2018-06-11T13:09:49.832Z,27.29
2018-06-11T13:12:17.924Z,27.63
2018-06-11T13:14:45.977Z,27.51
2018-06-11T13:17:14.000Z,27.51
2018-06-11T13:19:42.060Z,27.68
2018-06-11T13:22:10.107Z,27.73
2018-06-11T13:24:39.135Z,27.43
2018-06-11T13:27:07.128Z,27.47
2018-06-11T13:29:35.179Z,27.38
2018-06-11T13:32:03.189Z,27.21
2018-06-11T13:34:31.199Z,27.24
2018-06-11T13:36:59.349Z,27.25
2018-06-11T13:39:27.416Z,27.41
2018-06-11T13:41:55.467Z,27.38
2018-06-11T13:44:23.480Z,27.43
2018-06-11T13:46:51.493Z,27.78
2018-06-11T13:49:19.501Z,28.18
2018-06-11T13:51:47.530Z,28.73
2018-06-11T13:54:15.535Z,28.62
2018-06-11T13:56:44.733Z,27.59
2018-06-11T13:59:12.786Z,27.50
2018-06-11T14:01:40.832Z,27.52
2018-06-11T14:04:08.846Z,27.62
2018-06-11T14:06:36.896Z,27.53
2018-06-11T14:09:07.368Z,27.03
2018-06-11T14:11:35.502Z,26.89
2018-06-11T14:14:04.278Z,27.17
2018-06-11T14:16:32.288Z,27.48
2018-06-11T14:19:00.320Z,26.83
2018-06-11T14:21:28.349Z,26.53
2018-06-11T14:23:56.404Z,26.12
2018-06-11T14:26:24.432Z,26.20
2018-06-11T14:28:52.402Z,26.62
2018-06-11T14:31:20.498Z,26.73
2018-06-11T14:33:48.477Z,27.11
2018-06-11T14:36:16.641Z,27.61
2018-06-11T14:38:44.690Z,27.72
2018-06-11T14:41:12.760Z,27.51
2018-06-11T14:43:40.701Z,27.35
2018-06-11T14:46:08.708Z,27.06
2018-06-11T14:48:36.741Z,27.51
2018-06-11T14:51:04.822Z,27.08
2018-06-11T14:53:32.838Z,26.94
2018-06-11T14:56:00.989Z,27.03
2018-06-11T14:58:29.017Z,27.22
2018-06-11T15:00:57.041Z,27.40
2018-06-11T15:03:25.055Z,27.17
2018-06-11T15:05:53.140Z,26.29
2018-06-11T15:08:21.333Z,26.01
2018-06-11T15:10:49.484Z,26.21
2018-06-11T15:13:17.577Z,26.34
2018-06-11T15:15:45.619Z,26.12
2018-06-11T15:18:13.605Z,26.23
2018-06-11T15:20:41.729Z,26.22
2018-06-11T15:23:09.737Z,26.25
2018-06-11T15:25:37.821Z,26.37
2018-06-11T15:28:05.888Z,26.58
2018-06-11T15:30:33.952Z,26.73
2018-06-11T15:33:01.957Z,26.88
2018-06-11T15:35:29.963Z,26.68
2018-06-11T15:37:57.982Z,26.64
2018-06-11T15:40:26.025Z,26.61
2018-06-11T15:42:54.029Z,26.66
2018-06-11T15:45:22.024Z,26.91
2018-06-11T15:47:50.140Z,26.15
2018-06-11T15:50:18.197Z,25.53
2018-06-11T15:52:46.257Z,25.42
2018-06-11T15:55:14.236Z,25.52
2018-06-11T15:57:42.349Z,25.85
2018-06-11T16:00:10.585Z,25.94
2018-06-11T16:02:38.681Z,26.11
2018-06-11T16:05:06.697Z,26.26
2018-06-11T16:07:34.717Z,26.41
2018-06-11T16:10:02.736Z,26.53
2018-06-11T16:12:30.765Z,26.82
2018-06-11T16:14:58.840Z,26.66
2018-06-11T16:17:26.884Z,26.73
2018-06-11T16:19:54.973Z,26.92
2018-06-11T16:22:23.031Z,27.24
2018-06-11T16:24:51.004Z,27.10
2018-06-11T16:27:19.021Z,27.01
2018-06-11T16:29:47.038Z,26.20
2018-06-11T16:32:15.050Z,26.17
2018-06-11T16:34:43.124Z,26.29
2018-06-11T16:37:11.157Z,26.43
2018-06-11T16:39:39.332Z,26.41
2018-06-11T16:42:07.354Z,26.20
2018-06-11T16:44:35.344Z,25.71
2018-06-11T16:47:03.408Z,25.30
2018-06-11T16:49:31.453Z,24.95
2018-06-11T16:51:59.513Z,24.92
2018-06-11T16:54:27.520Z,25.02
2018-06-11T16:56:55.540Z,24.75
2018-06-11T16:59:23.580Z,24.83
2018-06-11T17:01:51.596Z,24.87
2018-06-11T17:04:19.605Z,24.86
2018-06-11T17:06:47.678Z,24.66
2018-06-11T17:09:15.716Z,24.71
2018-06-11T17:11:43.760Z,24.95
2018-06-11T17:14:11.888Z,25.12
2018-06-11T17:16:39.948Z,24.99
2018-06-11T17:19:07.960Z,24.92
2018-06-11T17:21:36.011Z,24.74
2018-06-11T17:24:04.031Z,24.62
2018-06-11T17:26:32.025Z,24.44
2018-06-11T17:29:00.050Z,24.14
2018-06-11T17:31:28.056Z,24.27
2018-06-11T17:33:56.057Z,24.43
2018-06-11T17:36:24.092Z,24.06
2018-06-11T17:38:52.140Z,23.77
2018-06-11T17:41:20.172Z,23.91
2018-06-11T17:43:48.188Z,23.99
2018-06-11T17:46:16.193Z,23.66
2018-06-11T17:48:44.222Z,23.56
2018-06-11T17:51:12.267Z,23.43
2018-06-11T17:53:40.264Z,23.22
2018-06-11T17:56:08.313Z,23.27
2018-06-11T17:58:36.390Z,22.99
2018-06-11T18:01:04.359Z,23.00
2018-06-11T18:03:32.449Z,23.14
2018-06-11T18:06:00.490Z,23.11
2018-06-11T18:08:28.588Z,23.04
2018-06-11T18:10:56.618Z,22.75
2018-06-11T18:13:24.627Z,22.62
2018-06-11T18:18:19.955Z,22.45
2018-06-11T18:20:48.034Z,22.12
2018-06-11T18:23:16.070Z,22.09
2018-06-11T18:25:44.084Z,22.07
2018-06-11T18:28:12.152Z,22.08
2018-06-11T18:30:40.245Z,21.93
2018-06-11T18:33:08.296Z,21.49
2018-06-11T18:35:36.357Z,21.58
2018-06-11T18:38:04.392Z,21.45
2018-06-11T18:40:32.884Z,21.25
2018-06-11T18:43:01.980Z,21.29
2018-06-11T18:45:30.064Z,21.23
2018-06-11T18:47:59.556Z,21.11
2018-06-11T18:50:28.070Z,21.00
2018-06-11T18:52:56.138Z,20.91
2018-06-11T18:55:24.207Z,20.78
2018-06-11T18:57:52.441Z,20.63
2018-06-11T19:00:20.465Z,20.47
2018-06-11T19:02:48.469Z,20.28
2018-06-11T19:05:16.553Z,20.11
2018-06-11T19:07:44.612Z,20.07
2018-06-11T19:10:12.709Z,20.04
2018-06-11T19:12:40.778Z,19.91
2018-06-11T19:15:08.859Z,19.63
2018-06-11T19:17:36.861Z,19.61
2018-06-11T19:20:04.941Z,19.51
2018-06-11T19:22:32.982Z,19.67
2018-06-11T19:25:01.089Z,19.67
2018-06-11T19:27:29.103Z,19.66
2018-06-11T19:29:57.096Z,19.72
2018-06-11T19:32:25.120Z,19.70
2018-06-11T19:34:53.168Z,19.76
2018-06-11T19:37:21.231Z,19.73
2018-06-11T19:39:49.317Z,19.66
2018-06-11T19:42:17.376Z,19.57
2018-06-11T19:44:45.785Z,19.43
2018-06-11T19:47:13.800Z,19.13
2018-06-11T19:49:41.809Z,18.84
2018-06-11T19:52:09.897Z,18.82
2018-06-11T19:54:38.940Z,18.65
2018-06-11T19:57:07.077Z,18.70
2018-06-11T19:59:35.211Z,18.49
2018-06-11T20:02:03.429Z,18.53
2018-06-11T20:04:31.484Z,18.57
2018-06-11T20:06:59.581Z,18.60
2018-06-11T20:09:27.660Z,18.40
2018-06-11T20:11:55.674Z,18.14
2018-06-11T20:14:23.818Z,18.25
2018-06-11T20:16:51.835Z,18.13
2018-06-11T20:19:19.998Z,18.08
2018-06-11T20:21:47.955Z,17.95
2018-06-11T20:24:16.046Z,17.87
2018-06-11T20:26:44.037Z,17.70
2018-06-11T20:29:12.038Z,17.59
2018-06-11T20:31:40.034Z,17.55
2018-06-11T20:34:08.048Z,17.49
2018-06-11T20:36:36.051Z,17.33
2018-06-11T20:39:06.050Z,17.19
2018-06-11T20:41:34.085Z,16.95
2018-06-11T20:44:02.072Z,16.79
2018-06-11T20:46:30.195Z,16.72
2018-06-11T20:48:58.250Z,16.65
2018-06-11T20:51:26.302Z,16.59
2018-06-11T20:53:54.308Z,16.51
2018-06-11T20:56:22.342Z,16.54
2018-06-11T20:58:50.400Z,16.60
2018-06-11T21:01:19.515Z,16.46
2018-06-11T21:03:47.516Z,16.37
2018-06-11T21:06:15.556Z,16.13
2018-06-11T21:08:43.624Z,16.09
2018-06-11T21:11:11.636Z,16.05
2018-06-11T21:13:39.681Z,15.86
2018-06-11T21:16:07.697Z,15.82
2018-06-11T21:18:35.686Z,15.79
2018-06-11T21:21:03.751Z,15.72
2018-06-11T21:23:31.785Z,15.76
2018-06-11T21:25:59.776Z,15.93
2018-06-11T21:28:27.780Z,15.84
2018-06-11T21:30:55.777Z,15.74
2018-06-11T21:33:23.800Z,15.87
2018-06-11T21:35:51.810Z,15.74
2018-06-11T21:38:19.957Z,15.68
2018-06-11T21:40:47.994Z,15.74
2018-06-11T21:43:16.005Z,15.77
2018-06-11T21:45:44.295Z,15.78
2018-06-11T21:48:12.331Z,15.85
2018-06-11T21:50:40.405Z,15.83
2018-06-11T21:53:08.408Z,15.88
2018-06-11T21:55:36.442Z,15.75
2018-06-11T21:58:04.446Z,15.83
2018-06-11T22:00:32.429Z,15.92
2018-06-11T22:03:00.416Z,15.90
2018-06-11T22:05:28.470Z,15.70
2018-06-11T22:07:56.515Z,15.64
2018-06-11T22:10:24.486Z,15.57
2018-06-11T22:12:52.803Z,15.49
2018-06-11T22:15:20.848Z,15.57
2018-06-11T22:17:48.860Z,15.69
2018-06-11T22:20:16.873Z,15.67
2018-06-11T22:22:44.896Z,15.63
2018-06-11T22:25:12.923Z,15.70
2018-06-11T22:27:41.133Z,15.65
2018-06-11T22:30:09.127Z,15.68
2018-06-11T22:32:37.124Z,15.63
2018-06-11T22:35:05.153Z,15.72
2018-06-11T22:37:33.144Z,15.64
2018-06-11T22:40:01.157Z,15.58
2018-06-11T22:42:29.145Z,15.74
2018-06-11T22:44:57.116Z,15.57
2018-06-11T22:47:25.101Z,15.55
2018-06-11T22:49:53.144Z,15.45
2018-06-11T22:52:21.180Z,15.41
2018-06-11T22:54:49.208Z,15.34
2018-06-11T22:57:17.203Z,15.47
2018-06-11T22:59:45.232Z,15.43
2018-06-11T23:02:13.201Z,15.41
2018-06-11T23:04:41.193Z,15.47
2018-06-11T23:07:09.204Z,15.56
2018-06-11T23:09:37.316Z,15.51
2018-06-11T23:12:05.328Z,15.52
2018-06-11T23:17:07.724Z,15.51
2018-06-11T23:19:35.773Z,15.64
2018-06-11T23:22:03.845Z,15.68
2018-06-11T23:24:31.860Z,15.63
2018-06-11T23:26:59.873Z,15.58
2018-06-11T23:29:27.857Z,15.42
2018-06-11T23:31:55.860Z,15.45
2018-06-11T23:34:23.840Z,15.46
2018-06-11T23:36:51.844Z,15.46
2018-06-11T23:39:19.821Z,15.35
2018-06-11T23:41:47.814Z,15.11
2018-06-11T23:44:15.792Z,15.02
2018-06-11T23:46:43.777Z,14.91
2018-06-11T23:49:12.599Z,14.90
2018-06-11T23:51:40.576Z,14.73
2018-06-11T23:54:08.581Z,14.63
2018-06-11T23:56:36.601Z,14.59
2018-06-11T23:59:04.637Z,14.58
